Time;durP1;ratioP1;P1;durP2;ratioP2;P2;SDS_P1;SDS_P2;PMS_P1;PMS_P2;Temp;Humidity;BMP_temperature;BMP_pressure;BME280_temperature;BME280_humidity;BME280_pressure;Samples;Min_cycle;Max_cycle;Signal;HPM_P1;HPM_P2
2022/01/02 00:00:33;;;;;;;32.35;20.90;;;10.00;99.90;;;;;;5036998;28;20506;-73
2022/01/02 00:03:04;;;;;;;30.13;21.10;;;10.00;99.90;;;;;;5033716;28;20104;-69
2022/01/02 00:05:34;;;;;;;30.25;21.42;;;10.00;99.90;;;;;;5015998;28;20085;-69
2022/01/02 00:08:09;;;;;;;30.13;21.52;;;10.10;99.90;;;;;;5033374;28;20048;-77
2022/01/02 00:10:37;;;;;;;30.77;21.00;;;10.20;99.90;;;;;;5016570;28;20506;-69
2022/01/02 00:13:06;;;;;;;31.27;21.00;;;10.10;99.90;;;;;;5033187;28;20036;-69
2022/01/02 00:15:33;;;;;;;37.17;22.23;;;10.10;99.90;;;;;;5033377;28;20434;-73
2022/01/02 00:18:10;;;;;;;31.02;22.73;;;10.10;99.90;;;;;;5033279;28;20113;-78
2022/01/02 00:20:49;;;;;;;35.03;23.35;;;10.10;99.90;;;;;;5033389;28;20038;-81
2022/01/02 00:23:23;;;;;;;31.55;21.80;;;10.10;99.90;;;;;;5033339;28;20091;-76
2022/01/02 00:25:55;;;;;;;32.35;21.73;;;10.10;99.90;;;;;;5015492;28;20038;-71
2022/01/02 00:28:22;;;;;;;31.13;21.50;;;10.20;99.90;;;;;;5033062;28;20056;-82
2022/01/02 00:30:53;;;;;;;32.45;22.05;;;10.30;99.90;;;;;;5033296;28;20499;-79
2022/01/02 00:33:19;;;;;;;32.97;22.05;;;10.30;99.90;;;;;;5033598;28;20100;-75
2022/01/02 00:35:45;;;;;;;33.78;22.67;;;10.40;99.90;;;;;;5033367;28;20479;-67
2022/01/02 00:38:20;;;;;;;32.88;22.05;;;10.40;99.90;;;;;;5015307;28;20029;-81
2022/01/02 00:40:48;;;;;;;33.40;21.83;;;10.40;99.90;;;;;;5015187;28;20045;-81
2022/01/02 00:43:22;;;;;;;31.85;21.95;;;10.30;99.90;;;;;;5015831;28;20038;-78
2022/01/02 00:45:52;;;;;;;31.92;21.67;;;10.30;99.90;;;;;;5032227;28;20459;-79
2022/01/02 00:48:29;;;;;;;32.67;21.20;;;10.20;99.90;;;;;;5015129;28;20045;-76
2022/01/02 00:51:07;;;;;;;35.25;23.33;;;10.20;99.90;;;;;;5032882;28;20037;-81
2022/01/02 00:53:36;;;;;;;30.60;21.42;;;10.20;99.90;;;;;;5015858;28;20042;-83
2022/01/02 00:56:04;;;;;;;32.63;21.25;;;10.20;99.90;;;;;;5033855;28;20013;-78
2022/01/02 00:58:53;;;;;;;34.47;22.83;;;10.30;99.90;;;;;;5015234;28;20069;-80
2022/01/02 01:01:33;;;;;;;34.15;22.23;;;10.40;99.90;;;;;;5035482;28;20372;-78
2022/01/02 01:04:00;;;;;;;33.03;22.90;;;10.40;99.90;;;;;;5037360;28;20104;-81
2022/01/02 01:06:31;;;;;;;31.33;21.15;;;10.30;99.90;;;;;;5037356;28;20033;-79
2022/01/02 01:09:04;;;;;;;32.15;21.90;;;10.30;99.90;;;;;;5037143;28;20021;-74
2022/01/02 01:11:31;;;;;;;34.70;21.90;;;10.30;99.90;;;;;;5036353;28;20128;-79
2022/01/02 01:14:01;;;;;;;32.97;22.33;;;10.30;99.90;;;;;;5036293;28;20433;-79
2022/01/02 01:16:27;;;;;;;32.75;22.02;;;10.30;99.90;;;;;;5019305;28;20037;-80
2022/01/02 01:18:53;;;;;;;32.40;21.65;;;10.30;99.90;;;;;;5037046;28;20063;-77
2022/01/02 01:21:19;;;;;;;36.15;24.13;;;10.30;99.90;;;;;;5037719;28;20077;-82
2022/01/02 01:23:45;;;;;;;34.80;23.10;;;10.30;99.90;;;;;;5038142;28;20028;-76
2022/01/02 01:26:12;;;;;;;36.13;23.35;;;10.30;99.90;;;;;;5036518;28;20033;-81
2022/01/02 01:28:39;;;;;;;34.00;22.13;;;10.30;99.90;;;;;;5036650;28;20029;-82
2022/01/02 01:31:05;;;;;;;36.25;23.55;;;10.30;99.90;;;;;;5019056;28;20100;-81
2022/01/02 01:33:31;;;;;;;32.03;22.48;;;10.30;99.90;;;;;;5019076;28;20131;-81
2022/01/02 01:35:57;;;;;;;30.98;21.92;;;10.30;99.90;;;;;;5018652;28;20396;-83
2022/01/02 01:38:24;;;;;;;35.97;22.02;;;10.40;99.90;;;;;;5018758;28;20040;-79
2022/01/02 01:41:01;;;;;;;32.35;22.90;;;10.40;99.90;;;;;;5036530;28;20034;-82
2022/01/02 01:44:26;;;;;;;36.42;23.88;;;10.50;99.90;;;;;;5036632;28;20068;-83
2022/01/02 01:46:18;;;;;;;32.78;23.27;;;10.40;99.90;;;;;;5033041;28;20119;-82
2022/01/02 01:48:53;;;;;;;35.58;23.98;;;10.40;99.90;;;;;;5036646;28;20053;-82
2022/01/02 01:51:19;;;;;;;35.92;24.05;;;10.40;99.90;;;;;;5018290;28;20471;-80
2022/01/02 01:53:45;;;;;;;36.00;23.35;;;10.40;99.90;;;;;;5036044;28;20029;-83
2022/01/02 01:56:11;;;;;;;33.08;22.85;;;10.40;99.90;;;;;;5036064;28;20426;-82
2022/01/02 01:58:38;;;;;;;32.85;22.65;;;10.40;99.90;;;;;;5017686;28;20391;-66
2022/01/02 02:01:03;;;;;;;33.65;23.08;;;10.30;99.90;;;;;;5035354;28;20048;-65
2022/01/02 02:03:29;;;;;;;31.00;21.70;;;10.30;99.90;;;;;;5018039;28;20021;-67
2022/01/02 02:05:56;;;;;;;31.67;20.83;;;10.30;99.90;;;;;;5035599;28;20405;-69
2022/01/02 02:08:26;;;;;;;31.88;22.08;;;10.30;99.90;;;;;;5036004;28;20125;-65
2022/01/02 02:10:58;;;;;;;32.45;21.98;;;10.30;99.90;;;;;;5020158;28;20033;-65
2022/01/02 02:13:26;;;;;;;37.20;22.55;;;10.30;99.90;;;;;;5036272;28;20029;-71
2022/01/02 02:15:53;;;;;;;35.72;22.98;;;10.30;99.90;;;;;;5036176;28;20049;-69
2022/01/02 02:18:19;;;;;;;34.65;22.42;;;10.30;99.90;;;;;;5035302;28;20022;-65
2022/01/02 02:20:47;;;;;;;32.10;22.17;;;10.30;99.90;;;;;;5017202;28;20155;-65
2022/01/02 02:23:13;;;;;;;32.08;22.42;;;10.30;99.90;;;;;;5035252;28;20391;-67
2022/01/02 02:25:39;;;;;;;33.63;21.83;;;10.30;99.90;;;;;;5035211;28;20094;-67
2022/01/02 02:28:07;;;;;;;31.58;21.90;;;10.30;99.90;;;;;;5036135;28;20121;-64
2022/01/02 02:30:35;;;;;;;34.92;22.75;;;10.30;99.90;;;;;;5019897;28;20029;-65
2022/01/02 02:33:03;;;;;;;32.53;22.33;;;10.30;99.90;;;;;;5035447;28;20123;-65
2022/01/02 02:35:31;;;;;;;34.15;22.20;;;10.30;99.90;;;;;;5017742;28;20047;-66
2022/01/02 02:38:02;;;;;;;34.80;22.77;;;10.30;99.90;;;;;;5000923;28;20387;-65
2022/01/02 02:40:30;;;;;;;34.65;22.58;;;10.30;99.90;;;;;;5017045;28;20368;-67
2022/01/02 02:43:05;;;;;;;32.58;22.38;;;10.30;99.90;;;;;;5033942;28;20399;-66
2022/01/02 02:51:27;;;;;;;32.42;22.23;;;10.40;99.90;;;;;;5034752;28;20061;-63
2022/01/02 02:53:53;;;;;;;36.58;22.83;;;10.40;99.90;;;;;;5034373;28;20032;-72
2022/01/02 02:58:49;;;;;;;36.72;24.63;;;10.30;99.90;;;;;;5034507;28;20466;-62
2022/01/02 03:01:18;;;;;;;39.75;25.05;;;10.30;99.90;;;;;;5034365;28;20061;-67
2022/01/02 03:03:45;;;;;;;37.45;25.02;;;10.30;99.90;;;;;;5016922;28;20125;-65
2022/01/02 03:06:12;;;;;;;37.97;24.75;;;10.20;99.90;;;;;;5000455;28;20445;-64
2022/01/02 03:08:41;;;;;;;38.53;26.00;;;10.20;99.90;;;;;;5035086;28;20052;-67
2022/01/02 03:11:13;;;;;;;40.53;25.52;;;10.20;99.90;;;;;;5034519;28;20025;-63
2022/01/02 03:13:39;;;;;;;42.75;26.75;;;10.30;99.90;;;;;;5034221;28;20060;-64
2022/01/02 03:16:05;;;;;;;38.88;24.90;;;10.30;99.90;;;;;;5034174;28;20032;-63
2022/01/02 03:18:31;;;;;;;38.90;24.95;;;10.30;99.90;;;;;;5034244;28;20104;-64
2022/01/02 03:20:56;;;;;;;39.17;25.90;;;10.20;99.90;;;;;;5033931;28;20463;-65
2022/01/02 03:23:26;;;;;;;36.28;25.17;;;10.30;99.90;;;;;;5034216;28;20428;-73
2022/01/02 03:25:54;;;;;;;39.28;25.00;;;10.30;99.90;;;;;;5034463;28;20021;-65
2022/01/02 03:28:20;;;;;;;40.97;25.92;;;10.20;99.90;;;;;;5016589;28;20057;-66
2022/01/02 03:30:45;;;;;;;38.47;24.05;;;10.20;99.90;;;;;;5033999;28;20431;-63
2022/01/02 03:33:12;;;;;;;39.90;24.70;;;10.10;99.90;;;;;;5033806;28;20035;-68
2022/01/02 03:35:39;;;;;;;34.67;22.95;;;10.10;99.90;;;;;;5033818;28;20021;-66
2022/01/02 03:38:05;;;;;;;38.92;25.00;;;10.10;99.90;;;;;;5016139;28;20034;-63
2022/01/02 03:40:31;;;;;;;35.08;23.50;;;10.20;99.90;;;;;;5033689;28;20025;-72
2022/01/02 03:42:58;;;;;;;36.42;24.25;;;10.20;99.90;;;;;;5032538;28;20120;-64
2022/01/02 03:45:25;;;;;;;36.53;24.33;;;10.20;99.90;;;;;;5033706;28;20017;-65
2022/01/02 03:47:51;;;;;;;36.63;25.38;;;10.30;99.90;;;;;;5015837;28;20060;-66
2022/01/02 03:50:17;;;;;;;36.25;24.40;;;10.30;99.90;;;;;;5015994;28;20099;-67
2022/01/02 03:52:42;;;;;;;36.33;25.02;;;10.30;99.90;;;;;;5033355;28;20049;-63
2022/01/02 03:55:17;;;;;;;38.38;25.33;;;10.40;99.90;;;;;;5033653;28;20033;-68
2022/01/02 03:57:45;;;;;;;35.92;24.95;;;10.40;99.90;;;;;;5015642;28;20033;-72
2022/01/02 04:00:14;;;;;;;35.40;24.13;;;10.40;99.90;;;;;;5033224;28;20029;-66
2022/01/02 04:02:40;;;;;;;39.35;25.08;;;10.40;99.90;;;;;;5015580;28;20041;-69
2022/01/02 04:05:07;;;;;;;37.58;24.98;;;10.40;99.90;;;;;;5015586;28;20063;-73
2022/01/02 04:07:33;;;;;;;37.63;23.98;;;10.40;99.90;;;;;;5033354;28;20179;-74
2022/01/02 04:10:05;;;;;;;36.22;24.42;;;10.40;99.90;;;;;;5033296;28;20037;-80
2022/01/02 04:12:46;;;;;;;36.83;23.23;;;10.40;99.90;;;;;;5016616;28;20041;-77
2022/01/02 04:15:14;;;;;;;39.10;25.48;;;10.30;99.90;;;;;;5033256;28;20521;-65
2022/01/02 04:17:42;;;;;;;39.47;24.38;;;10.40;99.90;;;;;;5033262;28;20522;-69
2022/01/02 04:20:12;;;;;;;37.28;23.75;;;10.40;99.90;;;;;;5033101;28;20052;-79
2022/01/02 04:22:44;;;;;;;37.80;24.67;;;10.40;99.90;;;;;;5033468;28;20121;-80
2022/01/02 04:25:11;;;;;;;35.95;24.33;;;10.40;99.90;;;;;;5015288;28;20032;-81
2022/01/02 04:27:39;;;;;;;37.60;24.00;;;10.40;99.90;;;;;;5016181;28;20053;-84
2022/01/02 04:30:08;;;;;;;38.88;23.75;;;10.40;99.90;;;;;;5033425;28;20220;-77
2022/01/02 04:32:34;;;;;;;38.90;24.98;;;10.40;99.90;;;;;;5033267;28;20030;-80
2022/01/02 04:35:00;;;;;;;37.05;24.35;;;10.40;99.90;;;;;;5033365;28;20026;-79
2022/01/02 04:37:28;;;;;;;36.58;23.52;;;10.40;99.90;;;;;;5019763;28;20025;-82
2022/01/02 04:39:56;;;;;;;36.67;23.67;;;10.40;99.90;;;;;;5037909;28;20052;-80
2022/01/02 04:42:22;;;;;;;37.70;23.88;;;10.40;99.90;;;;;;5037321;28;20192;-80
2022/01/02 04:44:48;;;;;;;38.80;24.27;;;10.40;99.90;;;;;;5037261;28;20022;-81
2022/01/02 04:47:15;;;;;;;38.45;23.58;;;10.40;99.90;;;;;;5037516;28;20112;-82
2022/01/02 04:49:41;;;;;;;41.00;25.02;;;10.40;99.90;;;;;;5036803;28;20037;-80
2022/01/02 04:52:07;;;;;;;34.42;23.08;;;10.40;99.90;;;;;;5037410;28;20360;-83
2022/01/02 04:54:38;;;;;;;34.60;23.38;;;10.40;99.90;;;;;;5020050;28;20033;-83
2022/01/02 04:57:05;;;;;;;34.03;22.20;;;10.40;99.90;;;;;;5037236;28;20263;-82
2022/01/02 04:59:36;;;;;;;37.95;22.88;;;10.40;99.90;;;;;;5037212;28;20025;-83
2022/01/02 05:02:02;;;;;;;33.45;23.02;;;10.50;99.90;;;;;;5036856;28;20111;-82
2022/01/02 05:04:28;;;;;;;36.80;23.52;;;10.50;99.90;;;;;;5036842;28;20498;-82
2022/01/02 05:06:54;;;;;;;39.33;23.92;;;10.50;99.90;;;;;;5036642;28;20029;-77
2022/01/02 05:09:19;;;;;;;39.20;23.92;;;10.50;99.90;;;;;;5019041;28;20033;-79
2022/01/02 05:11:45;;;;;;;37.60;24.02;;;10.50;99.90;;;;;;5036817;28;20026;-82
2022/01/02 05:14:11;;;;;;;35.70;23.63;;;10.50;99.90;;;;;;5036686;28;20021;-81
2022/01/02 05:16:38;;;;;;;37.35;23.50;;;10.40;99.90;;;;;;5019200;28;20029;-82
2022/01/02 05:19:05;;;;;;;36.42;23.63;;;10.40;99.90;;;;;;5036568;28;20018;-82
2022/01/02 05:21:33;;;;;;;38.70;23.65;;;10.40;99.90;;;;;;5035961;28;20049;-80
2022/01/02 05:23:59;;;;;;;40.33;23.10;;;10.50;99.90;;;;;;5037530;28;20099;-78
2022/01/02 05:26:25;;;;;;;38.20;24.13;;;10.50;99.90;;;;;;5019967;28;20112;-67
2022/01/02 05:28:51;;;;;;;36.13;23.20;;;10.50;99.90;;;;;;5019745;28;20037;-74
2022/01/02 05:31:17;;;;;;;39.85;23.70;;;10.50;99.90;;;;;;5036909;28;20021;-69
2022/01/02 05:33:43;;;;;;;38.22;21.83;;;10.50;99.90;;;;;;5022321;28;20033;-67
2022/01/02 05:36:09;;;;;;;36.40;23.35;;;10.40;99.90;;;;;;5041134;28;20026;-68
2022/01/02 05:38:35;;;;;;;35.03;22.33;;;10.50;99.90;;;;;;5037783;28;20443;-75
2022/01/02 05:41:02;;;;;;;34.90;21.67;;;10.50;99.90;;;;;;5035068;28;20039;-65
2022/01/02 05:43:29;;;;;;;32.25;22.15;;;10.50;99.90;;;;;;5035259;28;20541;-65
2022/01/02 05:45:55;;;;;;;33.47;21.50;;;10.50;99.90;;;;;;5035750;28;20071;-63
2022/01/02 05:48:21;;;;;;;32.80;21.02;;;10.60;99.90;;;;;;5034782;28;20041;-64
2022/01/02 05:50:46;;;;;;;34.55;21.20;;;10.50;99.90;;;;;;5035303;28;20026;-65
2022/01/02 05:53:13;;;;;;;32.13;20.80;;;10.50;99.90;;;;;;5034637;28;20414;-67
2022/01/02 05:55:38;;;;;;;30.48;20.33;;;10.60;99.90;;;;;;5035314;28;20129;-64
2022/01/02 05:58:04;;;;;;;33.22;21.27;;;10.50;99.90;;;;;;5035618;28;20021;-64
2022/01/02 06:00:33;;;;;;;33.97;20.50;;;10.50;99.90;;;;;;5017682;28;20041;-67
2022/01/02 06:03:02;;;;;;;30.63;20.83;;;10.50;99.90;;;;;;5035444;28;20021;-64
2022/01/02 06:05:29;;;;;;;35.45;22.67;;;10.50;99.90;;;;;;5035611;28;20021;-69
2022/01/02 06:07:54;;;;;;;33.83;21.65;;;10.50;99.90;;;;;;5017939;28;20036;-68
2022/01/02 06:10:20;;;;;;;29.50;20.50;;;10.50;99.90;;;;;;5035277;28;20029;-63
2022/01/02 06:12:48;;;;;;;32.97;21.25;;;10.50;99.90;;;;;;5035258;28;20036;-67
2022/01/02 06:15:14;;;;;;;34.25;20.60;;;10.50;99.90;;;;;;5035116;28;20100;-70
2022/01/02 06:17:39;;;;;;;29.98;20.08;;;10.60;99.90;;;;;;5035287;28;20635;-64
2022/01/02 06:20:06;;;;;;;31.60;20.70;;;10.60;99.90;;;;;;5035186;28;20036;-67
2022/01/02 06:22:31;;;;;;;31.50;19.30;;;10.60;99.90;;;;;;5034993;28;20036;-67
2022/01/02 06:24:57;;;;;;;31.60;19.85;;;10.60;99.90;;;;;;5035346;28;20383;-67
2022/01/02 06:27:23;;;;;;;31.73;19.40;;;10.60;99.90;;;;;;5035098;28;20030;-63
2022/01/02 06:29:48;;;;;;;31.08;19.38;;;10.50;99.90;;;;;;5035092;28;20025;-68
2022/01/02 06:32:16;;;;;;;30.70;19.10;;;10.50;99.90;;;;;;5034935;28;20328;-63
2022/01/02 06:34:44;;;;;;;32.45;18.15;;;10.50;99.90;;;;;;5017467;28;20033;-64
2022/01/02 06:37:11;;;;;;;30.10;19.23;;;10.50;99.90;;;;;;5018300;28;20030;-64
2022/01/02 06:39:37;;;;;;;28.92;18.83;;;10.50;99.90;;;;;;5035756;28;20052;-64
2022/01/02 06:42:17;;;;;;;30.50;18.30;;;10.50;99.90;;;;;;5038008;28;20033;-63
2022/01/02 06:44:43;;;;;;;28.13;17.73;;;10.50;99.90;;;;;;5038031;28;20029;-69
2022/01/02 06:47:11;;;;;;;29.40;17.67;;;10.50;99.90;;;;;;5034979;28;20083;-73
2022/01/02 06:49:38;;;;;;;26.50;17.35;;;10.60;99.90;;;;;;5017176;28;20033;-68
2022/01/02 06:52:04;;;;;;;26.52;17.65;;;10.60;99.90;;;;;;5034581;28;20132;-62
2022/01/02 06:54:31;;;;;;;25.20;15.73;;;10.60;99.90;;;;;;5016861;28;20159;-68
2022/01/02 06:56:57;;;;;;;24.95;16.05;;;10.50;99.90;;;;;;5034525;28;20037;-73
2022/01/02 06:59:23;;;;;;;23.65;15.07;;;10.50;99.90;;;;;;5033843;28;20031;-75
2022/01/02 07:01:48;;;;;;;27.27;16.92;;;10.60;99.90;;;;;;5034325;28;20490;-71
2022/01/02 07:04:16;;;;;;;24.45;15.00;;;10.50;99.90;;;;;;5034483;28;20434;-64
2022/01/02 07:06:42;;;;;;;25.30;15.23;;;10.50;99.90;;;;;;5034558;28;20030;-69
2022/01/02 07:09:08;;;;;;;25.92;15.52;;;10.60;99.90;;;;;;5034046;28;20383;-65
2022/01/02 07:11:36;;;;;;;22.52;14.48;;;10.60;99.90;;;;;;5034060;28;20084;-65
2022/01/02 07:14:13;;;;;;;25.70;15.15;;;10.60;99.90;;;;;;5034225;28;20541;-64
2022/01/02 07:16:39;;;;;;;25.25;14.45;;;10.60;99.90;;;;;;5034188;28;20025;-65
2022/01/02 07:19:06;;;;;;;23.88;14.93;;;10.60;99.90;;;;;;5034869;28;20056;-65
2022/01/02 07:21:32;;;;;;;23.30;14.52;;;10.60;99.90;;;;;;5035642;28;20132;-68
2022/01/02 07:23:58;;;;;;;25.20;15.73;;;10.60;99.90;;;;;;5036082;28;20061;-69
2022/01/02 07:26:24;;;;;;;24.95;15.07;;;10.60;99.90;;;;;;5033961;28;20064;-64
2022/01/02 07:28:50;;;;;;;25.95;15.77;;;10.60;99.90;;;;;;5032844;28;20502;-74
2022/01/02 07:31:17;;;;;;;27.70;16.60;;;10.60;99.90;;;;;;5016767;28;20064;-70
2022/01/02 07:33:44;;;;;;;27.42;16.90;;;10.60;99.90;;;;;;5033998;28;20115;-68
2022/01/02 07:36:10;;;;;;;30.17;16.63;;;10.50;99.90;;;;;;5033737;28;20125;-72
2022/01/02 07:38:36;;;;;;;27.38;16.85;;;10.50;99.90;;;;;;5016014;28;20026;-71
2022/01/02 07:41:03;;;;;;;25.13;17.00;;;10.60;99.90;;;;;;5016078;28;20092;-76
2022/01/02 07:43:30;;;;;;;27.75;17.33;;;10.60;99.90;;;;;;5016074;28;20048;-65
2022/01/02 07:45:55;;;;;;;30.63;18.40;;;10.70;99.90;;;;;;5033869;28;20053;-67
2022/01/02 07:48:23;;;;;;;29.50;19.00;;;10.70;99.90;;;;;;5034005;28;20392;-66
2022/01/02 07:50:49;;;;;;;28.65;18.17;;;10.70;99.90;;;;;;5033919;28;20068;-66
2022/01/02 07:53:16;;;;;;;28.65;18.77;;;10.70;99.90;;;;;;5034973;28;20030;-66
2022/01/02 07:55:46;;;;;;;30.35;19.60;;;10.80;99.90;;;;;;5034196;28;20030;-65
2022/01/02 07:58:12;;;;;;;28.83;18.52;;;10.70;99.90;;;;;;5016865;28;20100;-79
2022/01/02 08:00:38;;;;;;;28.50;19.08;;;10.70;99.90;;;;;;5033826;28;20079;-68
2022/01/02 08:03:05;;;;;;;32.20;20.23;;;10.70;99.90;;;;;;5033521;28;20037;-66
2022/01/02 08:05:33;;;;;;;30.95;18.83;;;10.70;99.90;;;;;;5033906;28;20026;-75
2022/01/02 08:07:59;;;;;;;32.60;20.17;;;10.80;99.90;;;;;;5034321;28;20352;-75
2022/01/02 08:10:27;;;;;;;33.75;20.73;;;10.80;99.90;;;;;;5034307;28;20026;-80
2022/01/02 08:12:55;;;;;;;27.40;19.05;;;10.80;99.90;;;;;;5034098;28;20088;-80
2022/01/02 08:15:22;;;;;;;31.35;20.45;;;10.80;99.90;;;;;;5033404;28;20469;-70
2022/01/02 08:17:53;;;;;;;32.33;20.67;;;10.80;99.90;;;;;;5015294;28;20025;-85
2022/01/02 08:20:20;;;;;;;35.55;22.23;;;10.80;99.90;;;;;;5033338;28;20065;-75
2022/01/02 08:22:47;;;;;;;30.88;19.98;;;10.80;99.90;;;;;;5034037;28;20034;-75
2022/01/02 08:25:14;;;;;;;27.00;19.23;;;10.80;99.90;;;;;;5033900;28;20021;-79
2022/01/02 08:27:41;;;;;;;29.92;18.48;;;10.80;99.90;;;;;;5034379;28;20088;-74
2022/01/02 08:30:10;;;;;;;29.42;18.27;;;10.80;99.90;;;;;;5035922;28;20021;-70
2022/01/02 08:32:39;;;;;;;29.38;20.70;;;10.80;99.90;;;;;;5021638;28;20089;-76
2022/01/02 08:35:06;;;;;;;31.17;21.25;;;10.80;99.90;;;;;;5022074;28;20048;-72
2022/01/02 08:37:32;;;;;;;27.55;18.13;;;10.70;99.90;;;;;;5046830;28;20021;-74
2022/01/02 08:39:59;;;;;;;25.67;16.05;;;10.80;99.90;;;;;;5035146;28;20108;-76
2022/01/02 08:42:26;;;;;;;28.73;19.35;;;10.80;99.90;;;;;;5033628;28;20116;-76
2022/01/02 08:44:53;;;;;;;26.48;17.50;;;10.80;99.90;;;;;;4999331;28;20112;-83
2022/01/02 08:47:18;;;;;;;27.85;18.15;;;10.90;99.90;;;;;;5036459;28;20356;-82
2022/01/02 08:49:46;;;;;;;24.80;16.60;;;10.90;99.90;;;;;;5033194;28;20033;-81
2022/01/02 08:52:13;;;;;;;23.65;15.65;;;10.80;99.90;;;;;;5033092;28;20054;-81
2022/01/02 08:54:38;;;;;;;25.90;15.30;;;10.90;99.90;;;;;;5032964;28;20106;-77
2022/01/02 08:57:06;;;;;;;23.92;15.65;;;10.90;99.90;;;;;;5033092;28;20070;-73
2022/01/02 08:59:32;;;;;;;28.58;16.67;;;10.90;99.90;;;;;;5033247;28;20032;-83
2022/01/02 09:02:01;;;;;;;25.08;15.80;;;10.90;99.90;;;;;;5033559;28;20120;-79
2022/01/02 09:04:33;;;;;;;25.10;15.57;;;10.90;99.90;;;;;;5033779;28;20017;-81
2022/01/02 09:06:59;;;;;;;21.95;14.45;;;10.90;99.90;;;;;;5034465;28;20038;-65
2022/01/02 09:09:29;;;;;;;26.08;15.70;;;10.90;99.90;;;;;;5035565;28;20075;-73
2022/01/02 09:12:08;;;;;;;27.52;16.27;;;11.00;99.90;;;;;;5016965;28;20120;-70
2022/01/02 09:14:35;;;;;;;24.75;15.55;;;11.00;99.90;;;;;;5021178;28;20077;-67
2022/01/02 09:17:01;;;;;;;27.08;17.13;;;10.90;99.90;;;;;;5033311;28;20033;-67
2022/01/02 09:19:28;;;;;;;28.25;17.10;;;10.90;99.90;;;;;;5032667;28;20028;-70
2022/01/02 09:21:55;;;;;;;28.65;17.70;;;10.90;99.90;;;;;;5033973;28;20033;-68
2022/01/02 09:24:20;;;;;;;27.17;16.75;;;10.90;99.90;;;;;;5036428;28;20104;-64
2022/01/02 09:26:47;;;;;;;26.13;16.83;;;10.90;99.90;;;;;;5036107;28;20108;-67
2022/01/02 09:29:12;;;;;;;25.65;15.23;;;10.90;99.90;;;;;;5035523;28;20555;-65
2022/01/02 09:31:38;;;;;;;24.40;15.32;;;10.90;99.90;;;;;;5035536;28;20088;-65
2022/01/02 09:34:04;;;;;;;21.88;14.00;;;10.90;99.90;;;;;;5035565;28;20021;-70
2022/01/02 09:36:29;;;;;;;24.77;14.15;;;11.00;99.90;;;;;;5035786;28;20074;-65
2022/01/02 09:38:56;;;;;;;28.33;15.02;;;10.90;99.90;;;;;;5035622;28;20029;-67
2022/01/02 09:41:22;;;;;;;23.42;14.55;;;11.00;99.90;;;;;;5035500;28;20479;-66
2022/01/02 09:43:48;;;;;;;23.10;14.13;;;11.10;99.90;;;;;;5035442;28;20056;-64
2022/01/02 09:46:26;;;;;;;20.58;13.30;;;11.10;99.90;;;;;;5035184;28;20343;-69
2022/01/02 09:48:52;;;;;;;20.20;13.57;;;11.10;99.90;;;;;;5035536;28;20037;-65
2022/01/02 09:51:26;;;;;;;20.13;13.05;;;11.10;99.90;;;;;;5035255;28;20041;-66
2022/01/02 09:53:55;;;;;;;22.10;13.68;;;11.10;99.90;;;;;;5017629;28;20033;-65
2022/01/02 09:56:22;;;;;;;21.38;13.10;;;11.20;99.90;;;;;;5035636;28;20574;-66
2022/01/02 09:58:48;;;;;;;21.70;13.82;;;11.20;99.90;;;;;;5035014;28;20037;-65
2022/01/02 10:01:25;;;;;;;19.25;13.45;;;11.30;99.90;;;;;;5035125;28;20026;-66
2022/01/02 10:03:55;;;;;;;22.08;14.07;;;11.30;99.90;;;;;;5029796;28;20038;-71
2022/01/02 10:06:36;;;;;;;18.00;12.40;;;11.40;99.90;;;;;;5018490;28;20406;-68
2022/01/02 10:09:07;;;;;;;19.38;12.82;;;11.50;99.90;;;;;;5003330;28;20032;-72
2022/01/02 10:11:33;;;;;;;19.48;12.43;;;11.50;99.90;;;;;;5035078;28;20024;-74
2022/01/02 10:14:02;;;;;;;18.67;12.18;;;11.50;99.90;;;;;;5035148;28;20116;-67
2022/01/02 10:16:33;;;;;;;22.45;12.10;;;11.50;99.90;;;;;;5017551;28;20024;-69
2022/01/02 10:19:02;;;;;;;18.98;11.10;;;11.50;99.80;;;;;;5034834;28;20033;-68
2022/01/02 10:21:38;;;;;;;18.42;11.48;;;11.60;99.80;;;;;;5034629;28;20037;-70
2022/01/02 10:24:27;;;;;;;16.83;12.10;;;11.70;99.90;;;;;;5035117;28;20024;-66
2022/01/02 10:27:22;;;;;;;15.40;10.93;;;11.70;99.50;;;;;;5035270;28;20049;-65
2022/01/02 10:29:58;;;;;;;17.88;11.65;;;11.70;99.90;;;;;;5034746;28;20475;-65
2022/01/02 10:32:37;;;;;;;16.15;10.85;;;11.70;99.40;;;;;;5017528;28;20440;-71
2022/01/02 10:35:17;;;;;;;17.23;11.63;;;11.60;99.90;;;;;;5034301;28;20025;-71
2022/01/02 10:37:55;;;;;;;17.67;10.90;;;11.60;99.90;;;;;;5034450;28;20030;-64
2022/01/02 10:40:36;;;;;;;17.90;11.40;;;11.60;99.90;;;;;;5016860;28;20037;-68
2022/01/02 10:43:05;;;;;;;19.25;12.20;;;11.60;99.50;;;;;;5034834;28;20037;-72
2022/01/02 10:45:41;;;;;;;19.65;12.77;;;11.60;99.50;;;;;;5023835;28;20483;-70
2022/01/02 10:48:13;;;;;;;20.08;11.23;;;11.60;99.80;;;;;;5034298;28;20132;-65
2022/01/02 10:50:40;;;;;;;17.52;11.18;;;11.70;99.80;;;;;;5032895;28;20103;-68
2022/01/02 10:53:16;;;;;;;17.63;11.57;;;11.80;99.30;;;;;;5034300;28;20474;-71
2022/01/02 10:55:45;;;;;;;19.38;12.35;;;11.80;99.10;;;;;;5034306;28;20018;-65
2022/01/02 10:58:11;;;;;;;19.42;13.48;;;11.80;98.90;;;;;;5016433;28;20036;-73
2022/01/02 11:00:38;;;;;;;22.00;12.43;;;11.80;99.00;;;;;;4999600;28;20033;-68
2022/01/02 11:03:07;;;;;;;23.98;13.27;;;11.90;99.00;;;;;;5034356;28;20033;-66
2022/01/02 11:05:35;;;;;;;20.63;13.38;;;11.90;98.80;;;;;;5016442;28;20057;-69
2022/01/02 11:08:03;;;;;;;22.58;12.20;;;11.90;98.70;;;;;;5017666;28;20061;-65
2022/01/02 11:10:31;;;;;;;21.95;12.93;;;11.80;98.60;;;;;;5018245;28;20556;-65
2022/01/02 11:12:58;;;;;;;18.15;11.15;;;11.70;98.60;;;;;;5034376;28;20156;-66
2022/01/02 11:15:27;;;;;;;17.70;10.85;;;11.70;98.60;;;;;;5034658;28;20024;-65
2022/01/02 11:17:53;;;;;;;18.75;12.25;;;11.70;98.70;;;;;;5034991;28;20521;-70
2022/01/02 11:20:25;;;;;;;18.45;12.63;;;11.70;98.80;;;;;;5034723;28;20061;-70
2022/01/02 11:23:09;;;;;;;19.48;12.38;;;11.80;98.80;;;;;;5033953;28;20030;-66
2022/01/02 11:25:56;;;;;;;20.23;11.98;;;11.70;98.60;;;;;;5034276;28;20098;-67
2022/01/02 11:28:35;;;;;;;21.02;12.90;;;11.70;99.30;;;;;;5034418;28;20025;-66
2022/01/02 11:31:01;;;;;;;20.63;12.90;;;11.70;99.20;;;;;;5034966;28;20042;-66
2022/01/02 11:33:39;;;;;;;19.13;11.55;;;11.70;98.70;;;;;;5036451;28;20091;-65
2022/01/02 11:36:32;;;;;;;17.48;11.68;;;11.70;99.20;;;;;;5035369;28;20025;-66
2022/01/02 11:39:09;;;;;;;25.73;13.32;;;11.60;99.30;;;;;;5033631;28;20356;-70
2022/01/02 11:41:40;;;;;;;21.00;12.90;;;11.50;99.40;;;;;;5033990;28;20099;-81
2022/01/02 11:44:46;;;;;;;21.42;12.70;;;11.50;98.80;;;;;;5033272;28;20033;-81
2022/01/02 11:47:12;;;;;;;21.17;12.98;;;11.50;98.60;;;;;;5033200;28;20033;-75
2022/01/02 11:49:43;;;;;;;22.38;12.57;;;11.50;98.90;;;;;;5015603;28;20132;-68
2022/01/02 11:52:22;;;;;;;19.17;11.60;;;11.50;98.70;;;;;;5032862;28;20415;-79
2022/01/02 11:54:53;;;;;;;20.70;13.05;;;11.60;98.80;;;;;;5033277;28;20032;-76
2022/01/02 11:57:27;;;;;;;20.17;12.88;;;11.50;98.60;;;;;;5033547;28;20021;-74
2022/01/02 11:59:56;;;;;;;19.50;12.68;;;11.50;98.70;;;;;;5033207;28;20088;-72
2022/01/02 12:02:27;;;;;;;19.95;12.18;;;11.50;98.60;;;;;;5033465;28;20037;-84
2022/01/02 12:07:34;;;;;;;20.45;12.52;;;11.50;98.50;;;;;;5032965;28;20034;-79
2022/01/02 12:10:20;;;;;;;20.10;12.23;;;11.40;98.40;;;;;;5033042;28;20091;-68
2022/01/02 12:13:10;;;;;;;21.45;13.27;;;11.30;98.40;;;;;;5033951;28;20028;-79
2022/01/02 12:15:41;;;;;;;18.33;11.75;;;11.30;98.70;;;;;;5033440;28;20034;-83
2022/01/02 12:18:12;;;;;;;20.92;12.45;;;11.20;98.80;;;;;;5033774;28;20025;-84
2022/01/02 12:20:53;;;;;;;18.08;11.90;;;11.10;98.60;;;;;;5033680;28;20041;-82
2022/01/02 12:23:34;;;;;;;19.15;13.02;;;11.10;98.60;;;;;;5016056;28;20092;-82
2022/01/02 12:26:21;;;;;;;19.23;11.60;;;11.10;98.80;;;;;;5034346;28;20132;-83
2022/01/02 12:29:10;;;;;;;18.30;11.57;;;11.10;98.30;;;;;;5034293;28;20033;-75
2022/01/02 12:31:42;;;;;;;18.40;12.23;;;11.20;98.60;;;;;;5033856;28;20041;-82
2022/01/02 12:34:20;;;;;;;18.75;11.60;;;11.20;98.20;;;;;;5016934;28;20099;-74
2022/01/02 12:36:51;;;;;;;15.65;10.88;;;11.20;98.30;;;;;;5033665;28;20529;-82
2022/01/02 12:39:29;;;;;;;16.88;11.43;;;11.20;98.10;;;;;;5034530;28;20040;-81
2022/01/02 12:42:05;;;;;;;16.70;11.40;;;11.30;97.90;;;;;;5015625;28;20042;-69
2022/01/02 12:44:33;;;;;;;15.27;10.38;;;11.30;97.90;;;;;;5015035;28;20022;-64
2022/01/02 12:47:01;;;;;;;18.35;11.45;;;11.40;98.00;;;;;;5032791;28;20025;-65
2022/01/02 12:49:32;;;;;;;14.93;10.00;;;11.50;98.00;;;;;;5032372;28;20021;-65